sensor_id;sensor_type;location;lat;lon;timestamp;pressure;altitude;pressure_sealevel;temperature;humidity
56070;BME280;41944;52.078;-0.058;2022-09-21T00:00:12;102411.75;;;15.85;78.48
56070;BME280;41944;52.078;-0.058;2022-09-21T00:02:39;102412.55;;;15.83;78.63
56070;BME280;41944;52.078;-0.058;2022-09-21T00:05:07;102411.86;;;15.80;78.43
56070;BME280;41944;52.078;-0.058;2022-09-21T00:07:35;102414.78;;;15.79;78.79
56070;BME280;41944;52.078;-0.058;2022-09-21T00:10:02;102413.40;;;15.88;78.90
56070;BME280;41944;52.078;-0.058;2022-09-21T00:12:29;102412.97;;;15.80;78.94
56070;BME280;41944;52.078;-0.058;2022-09-21T00:14:56;102414.27;;;15.75;78.53
56070;BME280;41944;52.078;-0.058;2022-09-21T00:17:23;102411.63;;;15.75;78.12
56070;BME280;41944;52.078;-0.058;2022-09-21T00:19:50;102408.21;;;15.80;78.00
56070;BME280;41944;52.078;-0.058;2022-09-21T00:22:17;102409.73;;;15.73;78.87
56070;BME280;41944;52.078;-0.058;2022-09-21T00:24:44;102411.48;;;15.75;79.49
56070;BME280;41944;52.078;-0.058;2022-09-21T00:27:11;102407.88;;;15.73;79.20
56070;BME280;41944;52.078;-0.058;2022-09-21T00:29:38;102407.21;;;15.70;79.44
56070;BME280;41944;52.078;-0.058;2022-09-21T00:32:05;102406.13;;;15.67;79.77
56070;BME280;41944;52.078;-0.058;2022-09-21T00:34:33;102406.70;;;15.63;80.18
56070;BME280;41944;52.078;-0.058;2022-09-21T00:37:00;102408.06;;;15.66;79.95
56070;BME280;41944;52.078;-0.058;2022-09-21T00:39:26;102408.18;;;15.68;79.96
56070;BME280;41944;52.078;-0.058;2022-09-21T00:41:53;102405.35;;;15.74;79.80
56070;BME280;41944;52.078;-0.058;2022-09-21T00:44:30;102404.87;;;15.76;79.06
56070;BME280;41944;52.078;-0.058;2022-09-21T00:47:02;102407.45;;;15.63;79.80
56070;BME280;41944;52.078;-0.058;2022-09-21T00:49:32;102406.87;;;15.54;80.35
56070;BME280;41944;52.078;-0.058;2022-09-21T00:52:02;102407.59;;;15.52;80.54
56070;BME280;41944;52.078;-0.058;2022-09-21T00:54:34;102407.69;;;15.55;80.59
56070;BME280;41944;52.078;-0.058;2022-09-21T00:57:03;102405.27;;;15.56;80.83
56070;BME280;41944;52.078;-0.058;2022-09-21T00:59:35;102404.95;;;15.57;80.88
56070;BME280;41944;52.078;-0.058;2022-09-21T01:02:03;102402.25;;;15.54;81.22
56070;BME280;41944;52.078;-0.058;2022-09-21T01:04:30;102400.93;;;15.53;81.00
56070;BME280;41944;52.078;-0.058;2022-09-21T01:07:00;102402.17;;;15.47;81.09
56070;BME280;41944;52.078;-0.058;2022-09-21T01:09:30;102404.14;;;15.48;80.99
56070;BME280;41944;52.078;-0.058;2022-09-21T01:12:06;102402.98;;;15.52;81.21
56070;BME280;41944;52.078;-0.058;2022-09-21T01:14:49;102405.88;;;15.53;80.59
56070;BME280;41944;52.078;-0.058;2022-09-21T01:17:26;102405.31;;;15.53;80.59
56070;BME280;41944;52.078;-0.058;2022-09-21T01:21:17;102404.82;;;15.54;80.70
56070;BME280;41944;52.078;-0.058;2022-09-21T01:24:02;102403.66;;;15.53;81.76
56070;BME280;41944;52.078;-0.058;2022-09-21T01:26:44;102404.62;;;15.58;81.59
56070;BME280;41944;52.078;-0.058;2022-09-21T01:29:19;102405.19;;;15.61;81.66
56070;BME280;41944;52.078;-0.058;2022-09-21T01:31:53;102407.25;;;15.44;82.51
56070;BME280;41944;52.078;-0.058;2022-09-21T01:34:29;102407.98;;;15.52;82.48
56070;BME280;41944;52.078;-0.058;2022-09-21T01:37:03;102409.92;;;15.60;82.21
56070;BME280;41944;52.078;-0.058;2022-09-21T01:39:34;102409.70;;;15.63;82.04
56070;BME280;41944;52.078;-0.058;2022-09-21T01:42:03;102408.93;;;15.47;83.17
56070;BME280;41944;52.078;-0.058;2022-09-21T01:44:34;102408.04;;;15.54;82.87
56070;BME280;41944;52.078;-0.058;2022-09-21T01:47:06;102405.81;;;15.48;83.13
56070;BME280;41944;52.078;-0.058;2022-09-21T01:49:38;102405.30;;;15.43;83.19
56070;BME280;41944;52.078;-0.058;2022-09-21T01:52:12;102404.47;;;15.40;83.13
56070;BME280;41944;52.078;-0.058;2022-09-21T01:54:43;102401.16;;;15.32;83.36
56070;BME280;41944;52.078;-0.058;2022-09-21T01:57:17;102401.83;;;15.25;83.59
56070;BME280;41944;52.078;-0.058;2022-09-21T01:59:48;102398.67;;;15.24;84.02
56070;BME280;41944;52.078;-0.058;2022-09-21T02:02:19;102399.62;;;15.35;83.36
56070;BME280;41944;52.078;-0.058;2022-09-21T02:04:47;102395.06;;;15.34;82.56
56070;BME280;41944;52.078;-0.058;2022-09-21T02:07:16;102393.45;;;15.38;82.36
56070;BME280;41944;52.078;-0.058;2022-09-21T02:09:43;102393.07;;;15.37;82.07
56070;BME280;41944;52.078;-0.058;2022-09-21T02:12:11;102391.47;;;15.38;82.72
56070;BME280;41944;52.078;-0.058;2022-09-21T02:14:38;102392.38;;;15.37;83.14
56070;BME280;41944;52.078;-0.058;2022-09-21T02:17:15;102395.35;;;15.34;83.62
56070;BME280;41944;52.078;-0.058;2022-09-21T02:19:47;102393.04;;;15.30;83.86
56070;BME280;41944;52.078;-0.058;2022-09-21T02:22:21;102396.00;;;15.32;83.88
56070;BME280;41944;52.078;-0.058;2022-09-21T02:24:56;102395.85;;;15.32;83.90
56070;BME280;41944;52.078;-0.058;2022-09-21T02:27:30;102395.35;;;15.36;83.56
56070;BME280;41944;52.078;-0.058;2022-09-21T02:30:05;102394.75;;;15.37;83.63
56070;BME280;41944;52.078;-0.058;2022-09-21T02:32:39;102391.81;;;15.49;82.90
56070;BME280;41944;52.078;-0.058;2022-09-21T02:35:14;102390.46;;;15.46;82.23
56070;BME280;41944;52.078;-0.058;2022-09-21T02:37:46;102388.89;;;15.47;81.65
56070;BME280;41944;52.078;-0.058;2022-09-21T02:40:21;102387.19;;;15.47;81.61
56070;BME280;41944;52.078;-0.058;2022-09-21T02:42:55;102383.49;;;15.46;81.16
56070;BME280;41944;52.078;-0.058;2022-09-21T02:45:25;102383.22;;;15.48;81.12
56070;BME280;41944;52.078;-0.058;2022-09-21T02:47:58;102383.58;;;15.48;81.35
56070;BME280;41944;52.078;-0.058;2022-09-21T02:50:32;102381.90;;;15.49;80.98
56070;BME280;41944;52.078;-0.058;2022-09-21T02:53:03;102383.95;;;15.50;81.62
56070;BME280;41944;52.078;-0.058;2022-09-21T02:55:31;102382.58;;;15.48;82.41
56070;BME280;41944;52.078;-0.058;2022-09-21T02:58:00;102381.50;;;15.44;83.09
56070;BME280;41944;52.078;-0.058;2022-09-21T03:00:29;102379.40;;;15.38;83.52
56070;BME280;41944;52.078;-0.058;2022-09-21T03:02:56;102375.53;;;15.36;83.45
56070;BME280;41944;52.078;-0.058;2022-09-21T03:05:23;102378.23;;;15.37;83.38
56070;BME280;41944;52.078;-0.058;2022-09-21T03:07:51;102378.34;;;15.30;83.86
56070;BME280;41944;52.078;-0.058;2022-09-21T03:10:17;102382.71;;;15.46;83.28
56070;BME280;41944;52.078;-0.058;2022-09-21T03:12:45;102377.95;;;15.65;79.90
56070;BME280;41944;52.078;-0.058;2022-09-21T03:15:12;102373.86;;;15.50;80.87
56070;BME280;41944;52.078;-0.058;2022-09-21T03:17:39;102370.65;;;15.51;81.29
56070;BME280;41944;52.078;-0.058;2022-09-21T03:20:07;102371.22;;;15.46;82.64
56070;BME280;41944;52.078;-0.058;2022-09-21T03:22:34;102371.24;;;15.38;82.37
56070;BME280;41944;52.078;-0.058;2022-09-21T03:25:01;102369.25;;;15.36;82.55
56070;BME280;41944;52.078;-0.058;2022-09-21T03:27:28;102369.37;;;15.47;81.34
56070;BME280;41944;52.078;-0.058;2022-09-21T03:29:55;102367.75;;;15.40;81.80
56070;BME280;41944;52.078;-0.058;2022-09-21T03:32:22;102367.70;;;15.45;81.35
56070;BME280;41944;52.078;-0.058;2022-09-21T03:34:49;102365.80;;;15.46;81.47
56070;BME280;41944;52.078;-0.058;2022-09-21T03:37:15;102365.70;;;15.46;81.17
56070;BME280;41944;52.078;-0.058;2022-09-21T03:39:42;102365.15;;;15.42;81.92
56070;BME280;41944;52.078;-0.058;2022-09-21T03:42:09;102361.10;;;15.54;81.68
56070;BME280;41944;52.078;-0.058;2022-09-21T03:44:36;102359.69;;;15.43;82.28
56070;BME280;41944;52.078;-0.058;2022-09-21T03:47:03;102361.07;;;15.45;82.89
56070;BME280;41944;52.078;-0.058;2022-09-21T03:49:31;102356.78;;;15.45;83.03
56070;BME280;41944;52.078;-0.058;2022-09-21T03:51:58;102354.35;;;15.48;83.00
56070;BME280;41944;52.078;-0.058;2022-09-21T03:54:24;102355.82;;;15.37;83.03
56070;BME280;41944;52.078;-0.058;2022-09-21T03:56:51;102352.50;;;15.37;83.35
56070;BME280;41944;52.078;-0.058;2022-09-21T03:59:18;102347.13;;;15.32;83.59
56070;BME280;41944;52.078;-0.058;2022-09-21T04:01:45;102348.59;;;15.26;83.94
56070;BME280;41944;52.078;-0.058;2022-09-21T04:04:13;102348.48;;;15.25;84.11
56070;BME280;41944;52.078;-0.058;2022-09-21T04:06:39;102343.16;;;15.24;83.73
56070;BME280;41944;52.078;-0.058;2022-09-21T04:09:07;102343.27;;;15.22;83.30
56070;BME280;41944;52.078;-0.058;2022-09-21T04:11:34;102337.99;;;15.28;82.96
56070;BME280;41944;52.078;-0.058;2022-09-21T04:14:01;102337.93;;;15.32;82.51
56070;BME280;41944;52.078;-0.058;2022-09-21T04:16:28;102337.80;;;15.31;82.57
56070;BME280;41944;52.078;-0.058;2022-09-21T04:18:55;102336.58;;;15.31;82.81
56070;BME280;41944;52.078;-0.058;2022-09-21T04:21:22;102336.07;;;15.31;82.63
56070;BME280;41944;52.078;-0.058;2022-09-21T04:23:49;102333.43;;;15.31;82.97
56070;BME280;41944;52.078;-0.058;2022-09-21T04:26:19;102331.05;;;15.29;82.82
56070;BME280;41944;52.078;-0.058;2022-09-21T04:28:47;102331.05;;;15.33;82.43
56070;BME280;41944;52.078;-0.058;2022-09-21T04:31:15;102331.35;;;15.29;82.39
56070;BME280;41944;52.078;-0.058;2022-09-21T04:33:42;102332.27;;;15.40;81.58
56070;BME280;41944;52.078;-0.058;2022-09-21T04:36:10;102332.02;;;15.57;80.88
56070;BME280;41944;52.078;-0.058;2022-09-21T04:38:37;102333.78;;;15.60;80.24
56070;BME280;41944;52.078;-0.058;2022-09-21T04:41:04;102331.29;;;15.67;79.95
56070;BME280;41944;52.078;-0.058;2022-09-21T04:43:31;102331.21;;;15.78;79.43
56070;BME280;41944;52.078;-0.058;2022-09-21T04:46:02;102327.85;;;15.96;78.16
56070;BME280;41944;52.078;-0.058;2022-09-21T04:48:30;102330.16;;;15.78;79.11
56070;BME280;41944;52.078;-0.058;2022-09-21T04:50:57;102329.76;;;15.93;78.28
56070;BME280;41944;52.078;-0.058;2022-09-21T04:53:24;102331.43;;;15.79;78.85
56070;BME280;41944;52.078;-0.058;2022-09-21T04:55:51;102331.44;;;15.72;79.25
56070;BME280;41944;52.078;-0.058;2022-09-21T04:58:18;102332.39;;;15.77;79.14
56070;BME280;41944;52.078;-0.058;2022-09-21T05:00:48;102327.00;;;15.88;78.58
56070;BME280;41944;52.078;-0.058;2022-09-21T05:03:15;102327.33;;;15.96;78.00
56070;BME280;41944;52.078;-0.058;2022-09-21T05:05:46;102327.68;;;15.90;78.39
56070;BME280;41944;52.078;-0.058;2022-09-21T05:08:13;102325.50;;;15.94;78.18
56070;BME280;41944;52.078;-0.058;2022-09-21T05:10:40;102327.71;;;16.23;76.36
56070;BME280;41944;52.078;-0.058;2022-09-21T05:13:08;102329.62;;;16.19;76.59
56070;BME280;41944;52.078;-0.058;2022-09-21T05:15:36;102327.93;;;15.95;77.82
56070;BME280;41944;52.078;-0.058;2022-09-21T05:18:03;102326.50;;;15.98;77.98
56070;BME280;41944;52.078;-0.058;2022-09-21T05:20:30;102327.03;;;15.96;77.97
56070;BME280;41944;52.078;-0.058;2022-09-21T05:22:59;102327.46;;;15.96;77.89
56070;BME280;41944;52.078;-0.058;2022-09-21T05:25:26;102329.56;;;15.98;77.61
56070;BME280;41944;52.078;-0.058;2022-09-21T05:27:53;102329.64;;;15.96;77.81
56070;BME280;41944;52.078;-0.058;2022-09-21T05:30:21;102335.72;;;16.09;77.40
56070;BME280;41944;52.078;-0.058;2022-09-21T05:32:55;102332.25;;;15.95;77.94
56070;BME280;41944;52.078;-0.058;2022-09-21T05:35:30;102334.52;;;15.81;79.31
56070;BME280;41944;52.078;-0.058;2022-09-21T05:38:09;102336.79;;;15.66;80.60
56070;BME280;41944;52.078;-0.058;2022-09-21T05:40:37;102337.94;;;15.62;80.88
56070;BME280;41944;52.078;-0.058;2022-09-21T05:43:05;102340.19;;;15.65;80.04
56070;BME280;41944;52.078;-0.058;2022-09-21T05:45:32;102339.72;;;15.60;80.79
56070;BME280;41944;52.078;-0.058;2022-09-21T05:48:07;102341.82;;;15.61;80.54
56070;BME280;41944;52.078;-0.058;2022-09-21T05:50:47;102342.63;;;15.71;80.50
56070;BME280;41944;52.078;-0.058;2022-09-21T05:53:26;102345.54;;;15.82;80.20
56070;BME280;41944;52.078;-0.058;2022-09-21T05:55:58;102345.40;;;15.75;80.40
56070;BME280;41944;52.078;-0.058;2022-09-21T05:58:33;102345.85;;;15.77;80.49
56070;BME280;41944;52.078;-0.058;2022-09-21T06:01:16;102345.70;;;15.74;81.08
56070;BME280;41944;52.078;-0.058;2022-09-21T06:03:46;102347.57;;;15.89;80.27
56070;BME280;41944;52.078;-0.058;2022-09-21T06:06:13;102349.06;;;16.01;79.16
56070;BME280;41944;52.078;-0.058;2022-09-21T06:08:40;102350.09;;;15.90;79.36
56070;BME280;41944;52.078;-0.058;2022-09-21T06:11:08;102350.19;;;15.93;79.26
56070;BME280;41944;52.078;-0.058;2022-09-21T06:13:35;102351.36;;;16.06;78.09
56070;BME280;41944;52.078;-0.058;2022-09-21T06:16:03;102357.50;;;15.88;79.26
56070;BME280;41944;52.078;-0.058;2022-09-21T06:18:31;102357.87;;;15.87;79.51
56070;BME280;41944;52.078;-0.058;2022-09-21T06:21:02;102360.78;;;15.95;79.33
56070;BME280;41944;52.078;-0.058;2022-09-21T06:23:29;102359.30;;;16.06;78.92
56070;BME280;41944;52.078;-0.058;2022-09-21T06:25:56;102359.40;;;16.03;78.89
56070;BME280;41944;52.078;-0.058;2022-09-21T06:28:23;102361.11;;;16.27;77.64
56070;BME280;41944;52.078;-0.058;2022-09-21T06:30:51;102361.60;;;16.15;77.77
56070;BME280;41944;52.078;-0.058;2022-09-21T06:33:18;102361.84;;;15.97;78.88
56070;BME280;41944;52.078;-0.058;2022-09-21T06:35:51;102362.07;;;16.21;78.09
56070;BME280;41944;52.078;-0.058;2022-09-21T06:38:18;102363.53;;;16.26;77.45
56070;BME280;41944;52.078;-0.058;2022-09-21T06:40:46;102363.80;;;16.30;77.25
56070;BME280;41944;52.078;-0.058;2022-09-21T06:43:12;102369.99;;;16.43;77.06
56070;BME280;41944;52.078;-0.058;2022-09-21T06:45:39;102372.22;;;16.41;77.75
56070;BME280;41944;52.078;-0.058;2022-09-21T06:48:07;102367.43;;;16.41;77.58
56070;BME280;41944;52.078;-0.058;2022-09-21T06:50:34;102372.86;;;16.38;77.68
56070;BME280;41944;52.078;-0.058;2022-09-21T06:53:01;102372.15;;;16.30;78.23
56070;BME280;41944;52.078;-0.058;2022-09-21T06:55:30;102373.58;;;16.42;77.18
56070;BME280;41944;52.078;-0.058;2022-09-21T06:58:01;102372.26;;;16.34;77.72
56070;BME280;41944;52.078;-0.058;2022-09-21T07:00:29;102374.99;;;16.40;77.17
56070;BME280;41944;52.078;-0.058;2022-09-21T07:02:56;102376.94;;;16.37;77.10
56070;BME280;41944;52.078;-0.058;2022-09-21T07:05:23;102377.52;;;16.54;75.61
56070;BME280;41944;52.078;-0.058;2022-09-21T07:07:55;102375.32;;;16.47;76.14
56070;BME280;41944;52.078;-0.058;2022-09-21T07:10:22;102374.89;;;16.60;75.67
56070;BME280;41944;52.078;-0.058;2022-09-21T07:12:49;102372.29;;;16.55;75.83
56070;BME280;41944;52.078;-0.058;2022-09-21T07:15:17;102372.63;;;16.59;76.93
56070;BME280;41944;52.078;-0.058;2022-09-21T07:17:44;102372.25;;;16.66;77.26
56070;BME280;41944;52.078;-0.058;2022-09-21T07:20:11;102373.41;;;16.61;77.49
56070;BME280;41944;52.078;-0.058;2022-09-21T07:22:38;102371.96;;;16.56;77.25
56070;BME280;41944;52.078;-0.058;2022-09-21T07:25:06;102370.17;;;16.71;76.40
56070;BME280;41944;52.078;-0.058;2022-09-21T07:27:33;102369.17;;;16.64;76.84
56070;BME280;41944;52.078;-0.058;2022-09-21T07:30:00;102369.87;;;16.69;76.79
56070;BME280;41944;52.078;-0.058;2022-09-21T07:32:27;102372.61;;;16.81;76.28
56070;BME280;41944;52.078;-0.058;2022-09-21T07:34:54;102372.89;;;16.67;77.01
56070;BME280;41944;52.078;-0.058;2022-09-21T07:37:21;102371.95;;;16.73;76.89
56070;BME280;41944;52.078;-0.058;2022-09-21T07:39:48;102373.43;;;16.79;77.47
56070;BME280;41944;52.078;-0.058;2022-09-21T07:42:16;102371.58;;;16.82;77.71
56070;BME280;41944;52.078;-0.058;2022-09-21T07:44:43;102369.43;;;16.64;77.99
56070;BME280;41944;52.078;-0.058;2022-09-21T07:47:10;102372.84;;;16.74;77.09
56070;BME280;41944;52.078;-0.058;2022-09-21T07:49:37;102372.61;;;16.85;77.05
56070;BME280;41944;52.078;-0.058;2022-09-21T07:52:04;102375.60;;;16.95;76.18
56070;BME280;41944;52.078;-0.058;2022-09-21T07:54:30;102374.77;;;16.93;75.96
56070;BME280;41944;52.078;-0.058;2022-09-21T07:56:58;102374.41;;;16.89;75.99
56070;BME280;41944;52.078;-0.058;2022-09-21T07:59:25;102378.00;;;16.99;76.26
56070;BME280;41944;52.078;-0.058;2022-09-21T08:01:52;102380.11;;;16.85;77.78
56070;BME280;41944;52.078;-0.058;2022-09-21T08:04:19;102381.64;;;16.83;78.05
56070;BME280;41944;52.078;-0.058;2022-09-21T08:06:46;102380.13;;;16.87;78.07
56070;BME280;41944;52.078;-0.058;2022-09-21T08:09:13;102378.52;;;16.92;77.95
56070;BME280;41944;52.078;-0.058;2022-09-21T08:11:41;102381.15;;;16.83;77.99
56070;BME280;41944;52.078;-0.058;2022-09-21T08:14:08;102381.99;;;16.86;76.83
56070;BME280;41944;52.078;-0.058;2022-09-21T08:16:37;102381.48;;;16.89;77.58
56070;BME280;41944;52.078;-0.058;2022-09-21T08:19:04;102380.28;;;17.04;77.50
56070;BME280;41944;52.078;-0.058;2022-09-21T08:21:31;102382.28;;;16.93;78.11
56070;BME280;41944;52.078;-0.058;2022-09-21T08:23:58;102378.26;;;16.96;78.78
56070;BME280;41944;52.078;-0.058;2022-09-21T08:26:25;102378.75;;;16.84;78.90
56070;BME280;41944;52.078;-0.058;2022-09-21T08:28:53;102378.08;;;16.97;78.51
56070;BME280;41944;52.078;-0.058;2022-09-21T08:31:21;102380.21;;;17.03;78.01
56070;BME280;41944;52.078;-0.058;2022-09-21T08:33:49;102381.84;;;17.19;77.86
56070;BME280;41944;52.078;-0.058;2022-09-21T08:36:17;102380.92;;;17.16;77.97
56070;BME280;41944;52.078;-0.058;2022-09-21T08:38:45;102381.08;;;17.02;79.01
56070;BME280;41944;52.078;-0.058;2022-09-21T08:41:15;102381.97;;;16.88;80.01
56070;BME280;41944;52.078;-0.058;2022-09-21T08:43:45;102386.18;;;16.96;79.69
56070;BME280;41944;52.078;-0.058;2022-09-21T08:46:16;102382.10;;;16.95;79.25
56070;BME280;41944;52.078;-0.058;2022-09-21T08:48:47;102382.25;;;17.03;79.56
56070;BME280;41944;52.078;-0.058;2022-09-21T08:51:20;102382.80;;;17.15;77.67
56070;BME280;41944;52.078;-0.058;2022-09-21T08:53:49;102385.57;;;17.28;75.60
56070;BME280;41944;52.078;-0.058;2022-09-21T08:56:19;102386.98;;;17.33;75.07
56070;BME280;41944;52.078;-0.058;2022-09-21T08:58:47;102385.93;;;17.32;74.70
56070;BME280;41944;52.078;-0.058;2022-09-21T09:01:30;102385.34;;;17.36;73.85
56070;BME280;41944;52.078;-0.058;2022-09-21T09:04:22;102386.78;;;17.39;73.32
56070;BME280;41944;52.078;-0.058;2022-09-21T09:06:59;102387.17;;;17.44;73.11
56070;BME280;41944;52.078;-0.058;2022-09-21T09:09:41;102388.05;;;17.40;73.54
56070;BME280;41944;52.078;-0.058;2022-09-21T09:12:23;102390.62;;;17.39;73.36
56070;BME280;41944;52.078;-0.058;2022-09-21T09:15:06;102390.18;;;17.39;74.03
56070;BME280;41944;52.078;-0.058;2022-09-21T09:17:48;102387.12;;;17.44;74.05
56070;BME280;41944;52.078;-0.058;2022-09-21T09:20:19;102386.81;;;17.36;74.45
56070;BME280;41944;52.078;-0.058;2022-09-21T09:22:52;102386.98;;;17.45;74.12
56070;BME280;41944;52.078;-0.058;2022-09-21T09:25:30;102386.15;;;17.43;74.72
56070;BME280;41944;52.078;-0.058;2022-09-21T09:28:09;102386.79;;;17.61;74.16
56070;BME280;41944;52.078;-0.058;2022-09-21T09:30:41;102390.77;;;17.51;74.26
56070;BME280;41944;52.078;-0.058;2022-09-21T09:33:13;102390.05;;;17.69;73.43
56070;BME280;41944;52.078;-0.058;2022-09-21T09:35:46;102388.96;;;17.75;73.75
56070;BME280;41944;52.078;-0.058;2022-09-21T09:38:20;102389.18;;;17.69;73.01
56070;BME280;41944;52.078;-0.058;2022-09-21T09:41:02;102388.18;;;17.63;73.62
56070;BME280;41944;52.078;-0.058;2022-09-21T09:43:43;102388.40;;;17.68;73.90
56070;BME280;41944;52.078;-0.058;2022-09-21T09:46:22;102389.62;;;17.77;72.16
56070;BME280;41944;52.078;-0.058;2022-09-21T09:49:08;102387.30;;;17.96;70.68
56070;BME280;41944;52.078;-0.058;2022-09-21T09:51:37;102387.51;;;18.15;69.71
56070;BME280;41944;52.078;-0.058;2022-09-21T09:54:07;102386.87;;;18.15;70.03
56070;BME280;41944;52.078;-0.058;2022-09-21T09:56:38;102385.73;;;18.12;69.70
56070;BME280;41944;52.078;-0.058;2022-09-21T09:59:10;102383.70;;;18.12;69.32
56070;BME280;41944;52.078;-0.058;2022-09-21T10:01:42;102381.46;;;18.35;68.06
56070;BME280;41944;52.078;-0.058;2022-09-21T10:04:10;102382.93;;;18.51;67.07
56070;BME280;41944;52.078;-0.058;2022-09-21T10:06:39;102383.76;;;18.51;67.30
56070;BME280;41944;52.078;-0.058;2022-09-21T10:09:25;102381.65;;;18.62;66.92
56070;BME280;41944;52.078;-0.058;2022-09-21T10:11:56;102380.97;;;18.63;66.06
56070;BME280;41944;52.078;-0.058;2022-09-21T10:14:25;102381.89;;;18.82;66.38
56070;BME280;41944;52.078;-0.058;2022-09-21T10:16:55;102382.22;;;18.90;65.97
56070;BME280;41944;52.078;-0.058;2022-09-21T10:19:25;102380.45;;;19.01;65.10
56070;BME280;41944;52.078;-0.058;2022-09-21T10:21:56;102378.61;;;18.95;64.99
56070;BME280;41944;52.078;-0.058;2022-09-21T10:24:26;102379.19;;;18.97;64.81
56070;BME280;41944;52.078;-0.058;2022-09-21T10:27:00;102378.23;;;18.99;64.08
56070;BME280;41944;52.078;-0.058;2022-09-21T10:29:31;102372.71;;;19.02;64.37
56070;BME280;41944;52.078;-0.058;2022-09-21T10:32:00;102371.69;;;19.15;63.81
56070;BME280;41944;52.078;-0.058;2022-09-21T10:34:29;102369.89;;;19.17;63.66
56070;BME280;41944;52.078;-0.058;2022-09-21T10:36:58;102369.69;;;19.26;63.07
56070;BME280;41944;52.078;-0.058;2022-09-21T10:39:28;102368.85;;;19.33;62.29
56070;BME280;41944;52.078;-0.058;2022-09-21T10:41:59;102369.40;;;19.36;62.31
56070;BME280;41944;52.078;-0.058;2022-09-21T10:44:32;102371.04;;;19.39;62.32
56070;BME280;41944;52.078;-0.058;2022-09-21T10:47:15;102371.67;;;19.39;62.61
56070;BME280;41944;52.078;-0.058;2022-09-21T10:49:45;102366.38;;;19.68;61.98
56070;BME280;41944;52.078;-0.058;2022-09-21T10:52:14;102368.12;;;19.73;61.14
56070;BME280;41944;52.078;-0.058;2022-09-21T10:54:41;102368.32;;;19.71;61.01
56070;BME280;41944;52.078;-0.058;2022-09-21T10:57:14;102368.43;;;19.70;61.32
56070;BME280;41944;52.078;-0.058;2022-09-21T10:59:42;102368.19;;;19.70;60.95
56070;BME280;41944;52.078;-0.058;2022-09-21T11:02:26;102367.90;;;19.70;60.12
56070;BME280;41944;52.078;-0.058;2022-09-21T11:04:57;102369.50;;;19.69;60.05
56070;BME280;41944;52.078;-0.058;2022-09-21T11:07:30;102365.05;;;19.77;59.70
56070;BME280;41944;52.078;-0.058;2022-09-21T11:10:07;102362.15;;;19.80;60.15
56070;BME280;41944;52.078;-0.058;2022-09-21T11:12:48;102362.35;;;19.87;60.04
56070;BME280;41944;52.078;-0.058;2022-09-21T11:15:26;102359.60;;;19.95;59.25
56070;BME280;41944;52.078;-0.058;2022-09-21T11:18:01;102358.27;;;20.05;58.38
56070;BME280;41944;52.078;-0.058;2022-09-21T11:20:42;102357.36;;;20.12;58.44
56070;BME280;41944;52.078;-0.058;2022-09-21T11:23:20;102357.09;;;20.09;58.17
56070;BME280;41944;52.078;-0.058;2022-09-21T11:25:55;102356.86;;;20.10;58.26
56070;BME280;41944;52.078;-0.058;2022-09-21T11:28:30;102352.57;;;20.10;57.71
56070;BME280;41944;52.078;-0.058;2022-09-21T11:31:40;102351.65;;;20.14;57.12
56070;BME280;41944;52.078;-0.058;2022-09-21T11:34:28;102350.76;;;20.14;57.51
56070;BME280;41944;52.078;-0.058;2022-09-21T11:37:09;102351.69;;;20.23;58.30
56070;BME280;41944;52.078;-0.058;2022-09-21T11:39:49;102351.50;;;20.26;57.53
56070;BME280;41944;52.078;-0.058;2022-09-21T11:42:32;102352.94;;;20.28;57.76
56070;BME280;41944;52.078;-0.058;2022-09-21T11:45:09;102352.23;;;20.26;57.84
56070;BME280;41944;52.078;-0.058;2022-09-21T11:47:56;102347.56;;;20.40;57.58
56070;BME280;41944;52.078;-0.058;2022-09-21T11:50:37;102346.33;;;20.59;57.16
56070;BME280;41944;52.078;-0.058;2022-09-21T11:53:19;102344.90;;;20.55;56.51
56070;BME280;41944;52.078;-0.058;2022-09-21T11:56:12;102340.96;;;20.70;56.58
56070;BME280;41944;52.078;-0.058;2022-09-21T11:58:48;102333.95;;;20.81;56.23
56070;BME280;41944;52.078;-0.058;2022-09-21T12:01:34;102332.29;;;20.78;56.79
56070;BME280;41944;52.078;-0.058;2022-09-21T12:04:19;102326.24;;;20.97;56.13
56070;BME280;41944;52.078;-0.058;2022-09-21T12:07:01;102322.52;;;21.05;56.27
56070;BME280;41944;52.078;-0.058;2022-09-21T12:09:44;102321.19;;;21.09;56.13
56070;BME280;41944;52.078;-0.058;2022-09-21T12:12:20;102321.84;;;21.20;57.75
56070;BME280;41944;52.078;-0.058;2022-09-21T12:14:56;102316.21;;;21.30;61.44
56070;BME280;41944;52.078;-0.058;2022-09-21T12:17:30;102314.36;;;21.20;58.86
56070;BME280;41944;52.078;-0.058;2022-09-21T12:20:08;102307.64;;;21.12;55.24
56070;BME280;41944;52.078;-0.058;2022-09-21T12:22:41;102302.31;;;21.21;55.49
56070;BME280;41944;52.078;-0.058;2022-09-21T12:25:14;102300.10;;;21.37;55.37
56070;BME280;41944;52.078;-0.058;2022-09-21T12:27:47;102301.99;;;21.35;54.06
56070;BME280;41944;52.078;-0.058;2022-09-21T12:30:17;102303.40;;;21.54;55.13
56070;BME280;41944;52.078;-0.058;2022-09-21T12:32:52;102303.86;;;21.59;54.52
56070;BME280;41944;52.078;-0.058;2022-09-21T12:35:27;102301.01;;;21.64;53.29
56070;BME280;41944;52.078;-0.058;2022-09-21T12:38:00;102298.14;;;21.77;52.22
56070;BME280;41944;52.078;-0.058;2022-09-21T12:40:36;102294.22;;;21.85;53.29
56070;BME280;41944;52.078;-0.058;2022-09-21T12:43:12;102291.52;;;21.90;50.63
56070;BME280;41944;52.078;-0.058;2022-09-21T12:45:45;102291.50;;;22.08;50.71
56070;BME280;41944;52.078;-0.058;2022-09-21T12:48:23;102288.06;;;22.12;51.20
56070;BME280;41944;52.078;-0.058;2022-09-21T12:50:54;102287.05;;;22.14;52.26
56070;BME280;41944;52.078;-0.058;2022-09-21T12:53:26;102286.74;;;22.19;51.54
56070;BME280;41944;52.078;-0.058;2022-09-21T12:55:57;102283.52;;;22.21;51.65
56070;BME280;41944;52.078;-0.058;2022-09-21T12:58:39;102276.81;;;22.13;50.53
56070;BME280;41944;52.078;-0.058;2022-09-21T13:01:19;102271.85;;;22.43;50.37